Time;durP1;ratioP1;P1;durP2;ratioP2;P2;SDS_P1;SDS_P2;PMS_P1;PMS_P2;Temp;Humidity;BMP_temperature;BMP_pressure;BME280_temperature;BME280_humidity;BME280_pressure;Samples;Min_cycle;Max_cycle;Signal;HPM_P1;HPM_P2
2020/12/28 00:00:20;;;;;;;6.57;3.00;;;2.00;99.90;;;;;;5011940;28;20573;-68
2020/12/28 00:02:47;;;;;;;7.70;3.17;;;2.00;99.90;;;;;;5011769;28;20498;-68
2020/12/28 00:05:14;;;;;;;8.27;3.00;;;2.10;99.90;;;;;;5012008;28;20136;-72
2020/12/28 00:07:41;;;;;;;6.57;3.00;;;2.00;99.90;;;;;;5011961;28;20481;-68
2020/12/28 00:10:10;;;;;;;7.37;3.13;;;2.10;99.90;;;;;;5011836;28;20095;-68
2020/12/28 00:12:47;;;;;;;5.77;2.50;;;2.10;99.90;;;;;;5012038;28;20422;-69
2020/12/28 00:15:19;;;;;;;7.03;3.25;;;2.20;99.90;;;;;;5011774;28;20062;-68
2020/12/28 00:17:47;;;;;;;8.37;3.13;;;2.20;99.90;;;;;;5011910;28;20589;-69
2020/12/28 00:20:14;;;;;;;6.60;2.93;;;2.10;99.90;;;;;;5011318;28;20563;-71
2020/12/28 00:22:41;;;;;;;6.03;2.70;;;2.20;99.90;;;;;;5012317;28;20050;-68
2020/12/28 00:25:08;;;;;;;10.63;3.63;;;2.10;99.90;;;;;;5011154;28;20137;-72
2020/12/28 00:27:35;;;;;;;8.13;3.40;;;2.20;99.90;;;;;;5012073;28;20140;-68
2020/12/28 00:30:03;;;;;;;7.53;2.70;;;2.20;99.90;;;;;;5011574;28;20133;-68
2020/12/28 00:32:34;;;;;;;6.77;2.77;;;2.10;99.90;;;;;;5011542;28;20200;-68
2020/12/28 00:35:00;;;;;;;7.33;3.23;;;2.10;99.90;;;;;;5011093;28;20061;-69
2020/12/28 00:37:27;;;;;;;8.93;2.90;;;2.10;99.90;;;;;;5011436;28;20081;-68
2020/12/28 00:39:54;;;;;;;7.00;3.23;;;2.10;99.90;;;;;;5011467;28;20062;-71
2020/12/28 00:42:21;;;;;;;8.43;3.37;;;2.10;99.90;;;;;;5012031;28;20124;-68
2020/12/28 00:44:48;;;;;;;7.43;3.27;;;2.10;99.90;;;;;;5011429;28;20489;-68
2020/12/28 00:47:16;;;;;;;7.23;3.20;;;2.10;99.90;;;;;;4994686;28;20149;-68
2020/12/28 00:49:44;;;;;;;9.03;2.93;;;2.10;99.90;;;;;;5010830;28;20532;-70
2020/12/28 00:52:11;;;;;;;8.10;2.93;;;2.00;99.90;;;;;;5011057;28;20066;-72
2020/12/28 00:54:38;;;;;;;7.17;3.00;;;2.00;99.90;;;;;;5011264;28;20076;-68
2020/12/28 00:57:04;;;;;;;6.80;2.83;;;1.90;99.90;;;;;;5010655;28;20124;-68
2020/12/28 00:59:31;;;;;;;9.17;2.93;;;2.00;99.90;;;;;;5011282;28;20049;-68
2020/12/28 01:01:59;;;;;;;8.63;3.30;;;1.90;99.90;;;;;;5010748;28;20143;-68
2020/12/28 01:04:26;;;;;;;8.17;3.50;;;1.90;99.90;;;;;;5010901;28;20574;-68
2020/12/28 01:06:54;;;;;;;8.07;2.87;;;1.80;99.90;;;;;;5010432;28;20053;-69
2020/12/28 01:09:21;;;;;;;6.50;3.30;;;1.70;99.90;;;;;;5011212;28;20049;-69
2020/12/28 01:11:48;;;;;;;8.30;3.67;;;1.60;99.90;;;;;;5010390;28;20517;-68
2020/12/28 01:14:15;;;;;;;8.17;3.83;;;1.60;99.90;;;;;;5011057;28;20050;-68
2020/12/28 01:16:44;;;;;;;11.67;4.40;;;1.50;99.90;;;;;;5010379;28;20058;-68
2020/12/28 01:19:11;;;;;;;9.87;4.10;;;1.50;99.90;;;;;;5011084;28;20061;-68
2020/12/28 01:21:38;;;;;;;10.57;4.67;;;1.50;99.90;;;;;;5010656;28;20149;-69
2020/12/28 01:24:06;;;;;;;9.03;3.90;;;1.50;99.90;;;;;;5011531;28;20467;-68
2020/12/28 01:26:33;;;;;;;7.60;3.60;;;1.50;99.90;;;;;;5010813;28;20525;-69
2020/12/28 01:28:59;;;;;;;7.90;3.70;;;1.50;99.90;;;;;;5010984;28;20058;-73
2020/12/28 01:31:26;;;;;;;7.87;3.60;;;1.40;99.90;;;;;;5010930;28;20481;-68
2020/12/28 01:33:53;;;;;;;9.30;3.37;;;1.40;99.90;;;;;;5010714;28;20454;-69
2020/12/28 01:36:20;;;;;;;8.67;3.90;;;1.40;99.90;;;;;;5010657;28;20161;-68
2020/12/28 01:38:50;;;;;;;9.23;3.80;;;1.40;99.90;;;;;;5010129;28;20058;-69
2020/12/28 01:41:18;;;;;;;8.07;3.57;;;1.40;99.90;;;;;;5010807;28;20100;-68
2020/12/28 01:43:44;;;;;;;9.50;4.10;;;1.50;99.90;;;;;;5010653;28;20081;-69
2020/12/28 01:46:12;;;;;;;8.33;3.60;;;1.40;99.90;;;;;;5010803;28;20046;-68
2020/12/28 01:48:39;;;;;;;7.83;4.13;;;1.50;99.90;;;;;;5010232;28;20050;-70
2020/12/28 01:51:06;;;;;;;7.27;3.23;;;1.50;99.90;;;;;;5010253;28;20096;-69
2020/12/28 01:53:33;;;;;;;9.80;4.07;;;1.50;99.90;;;;;;5010283;28;20053;-69
2020/12/28 01:56:03;;;;;;;5.93;2.70;;;1.50;99.90;;;;;;5011164;28;20132;-72
2020/12/28 01:58:31;;;;;;;8.47;4.13;;;1.60;99.90;;;;;;5010179;28;20046;-68
2020/12/28 02:00:58;;;;;;;9.83;3.60;;;1.50;99.90;;;;;;5010307;28;20499;-70
2020/12/28 02:03:26;;;;;;;7.70;3.33;;;1.60;99.90;;;;;;5009932;28;20141;-68
2020/12/28 02:05:54;;;;;;;8.90;3.80;;;1.60;99.90;;;;;;5010395;28;20177;-68
2020/12/28 02:08:21;;;;;;;9.13;4.40;;;1.60;99.90;;;;;;5010272;28;20054;-69
2020/12/28 02:10:48;;;;;;;8.80;3.63;;;1.70;99.90;;;;;;5010717;28;20053;-68
2020/12/28 02:13:15;;;;;;;9.33;3.60;;;1.70;99.90;;;;;;5010439;28;20180;-69
2020/12/28 02:15:42;;;;;;;10.23;4.20;;;1.70;99.90;;;;;;5011996;28;20096;-68
2020/12/28 02:18:09;;;;;;;6.90;3.30;;;1.70;99.90;;;;;;5014060;28;20116;-68
2020/12/28 02:20:36;;;;;;;9.93;4.97;;;1.70;99.90;;;;;;5013620;28;20089;-68
2020/12/28 02:23:04;;;;;;;8.33;3.70;;;1.80;99.90;;;;;;5014143;28;20092;-69
2020/12/28 02:25:31;;;;;;;7.80;3.63;;;1.70;99.90;;;;;;5015936;28;20142;-69
2020/12/28 02:27:58;;;;;;;7.83;3.70;;;1.70;99.90;;;;;;5017111;28;20060;-68
2020/12/28 02:30:25;;;;;;;9.20;3.57;;;1.70;99.90;;;;;;5016396;28;20077;-71
2020/12/28 02:32:52;;;;;;;8.00;3.70;;;1.70;99.90;;;;;;5016822;28;20089;-69
2020/12/28 02:35:18;;;;;;;8.00;3.10;;;1.80;99.90;;;;;;5016803;28;20100;-69
2020/12/28 02:37:45;;;;;;;7.30;3.00;;;1.80;99.90;;;;;;5017291;28;20061;-70
2020/12/28 02:40:13;;;;;;;8.50;3.77;;;1.90;99.90;;;;;;5016249;28;20133;-68
2020/12/28 02:42:40;;;;;;;9.33;3.60;;;1.80;99.90;;;;;;5013568;28;20058;-69
2020/12/28 02:45:07;;;;;;;9.23;3.63;;;1.90;99.90;;;;;;5013211;28;20081;-68
2020/12/28 02:47:34;;;;;;;8.17;3.90;;;1.90;99.90;;;;;;5013686;28;20054;-69
2020/12/28 02:50:01;;;;;;;7.80;3.50;;;1.90;99.90;;;;;;5013510;28;20159;-68
2020/12/28 02:52:27;;;;;;;8.03;3.40;;;1.80;99.90;;;;;;5013079;28;20076;-68
2020/12/28 02:54:54;;;;;;;9.80;3.30;;;1.90;99.90;;;;;;5013596;28;20060;-68
2020/12/28 02:57:22;;;;;;;7.67;3.40;;;1.80;99.90;;;;;;5012740;28;20050;-72
2020/12/28 02:59:49;;;;;;;9.67;3.33;;;1.80;99.90;;;;;;5013666;28;20085;-68
2020/12/28 03:02:15;;;;;;;8.60;4.37;;;1.80;99.90;;;;;;5013021;28;20050;-69
2020/12/28 03:04:42;;;;;;;10.67;3.93;;;1.80;99.90;;;;;;5013288;28;20410;-68
2020/12/28 03:07:09;;;;;;;7.33;3.47;;;1.80;99.90;;;;;;5012816;28;20056;-68
2020/12/28 03:09:36;;;;;;;9.83;4.37;;;1.80;99.90;;;;;;5013328;28;20050;-68
2020/12/28 03:12:03;;;;;;;7.13;3.27;;;1.90;99.90;;;;;;5012524;28;20127;-68
2020/12/28 03:14:31;;;;;;;8.17;3.27;;;1.90;99.90;;;;;;5013206;28;20141;-70
2020/12/28 03:16:57;;;;;;;7.73;3.10;;;2.00;99.90;;;;;;5012812;28;20137;-68
2020/12/28 03:19:24;;;;;;;11.33;4.27;;;1.90;99.90;;;;;;5013047;28;20050;-68
2020/12/28 03:21:51;;;;;;;6.93;3.37;;;2.00;99.90;;;;;;5012697;28;20494;-68
2020/12/28 03:24:18;;;;;;;9.47;4.00;;;1.90;99.90;;;;;;5013340;28;20112;-72
2020/12/28 03:26:44;;;;;;;8.97;3.67;;;1.90;99.90;;;;;;5012899;28;20084;-68
2020/12/28 03:29:11;;;;;;;7.63;3.43;;;2.00;99.90;;;;;;5012559;28;20135;-68
2020/12/28 03:31:39;;;;;;;8.10;3.20;;;2.00;99.90;;;;;;5012887;28;20057;-69
2020/12/28 03:34:06;;;;;;;6.70;3.43;;;2.00;99.90;;;;;;5012469;28;20049;-71
2020/12/28 03:36:33;;;;;;;8.93;3.50;;;2.00;99.90;;;;;;5010500;28;20068;-68
2020/12/28 03:39:00;;;;;;;10.43;4.20;;;2.00;99.90;;;;;;5010593;28;20061;-70
2020/12/28 03:41:27;;;;;;;10.03;3.90;;;2.10;99.90;;;;;;5012404;28;20049;-68
2020/12/28 03:43:54;;;;;;;9.33;3.77;;;2.10;99.90;;;;;;5012187;28;20088;-68
2020/12/28 03:46:21;;;;;;;9.07;3.60;;;2.10;99.90;;;;;;5012420;28;20069;-69
2020/12/28 03:48:48;;;;;;;8.17;3.63;;;2.10;99.90;;;;;;5011743;28;20137;-69
2020/12/28 03:51:15;;;;;;;9.80;4.10;;;2.10;99.90;;;;;;5012251;28;20526;-69
2020/12/28 03:53:42;;;;;;;7.40;3.43;;;2.10;99.90;;;;;;5011869;28;20140;-72
2020/12/28 03:56:09;;;;;;;8.57;3.70;;;2.10;99.90;;;;;;5012418;28;20085;-69
2020/12/28 03:58:36;;;;;;;9.60;3.73;;;2.00;99.90;;;;;;5011916;28;20128;-68
2020/12/28 04:01:04;;;;;;;7.87;3.90;;;2.10;99.90;;;;;;5012165;28;20089;-70
2020/12/28 04:03:31;;;;;;;9.70;4.10;;;2.00;99.90;;;;;;5011892;28;20058;-71
2020/12/28 04:06:01;;;;;;;7.43;3.33;;;2.00;99.90;;;;;;5012244;28;20118;-68
2020/12/28 04:08:28;;;;;;;8.47;3.90;;;2.00;99.90;;;;;;5011962;28;20058;-68
2020/12/28 04:10:55;;;;;;;8.43;3.33;;;1.90;99.90;;;;;;5011618;28;20080;-71
2020/12/28 04:13:22;;;;;;;8.00;3.40;;;2.00;99.90;;;;;;5012002;28;20046;-69
2020/12/28 04:15:49;;;;;;;9.17;3.60;;;1.90;99.90;;;;;;5011812;28;20054;-72
2020/12/28 04:18:15;;;;;;;8.93;3.57;;;1.90;99.90;;;;;;5011881;28;20520;-68
2020/12/28 04:20:43;;;;;;;7.83;3.77;;;1.90;99.90;;;;;;5011245;28;20141;-68
2020/12/28 04:23:11;;;;;;;9.90;3.57;;;1.90;99.90;;;;;;5011899;28;20093;-68
2020/12/28 04:25:38;;;;;;;9.43;3.40;;;1.90;99.90;;;;;;5011582;28;20049;-68
2020/12/28 04:28:05;;;;;;;7.43;3.43;;;1.90;99.90;;;;;;5011674;28;20502;-70
2020/12/28 04:30:32;;;;;;;8.27;3.20;;;1.80;99.90;;;;;;5011761;28;20077;-68
2020/12/28 04:32:59;;;;;;;8.03;3.37;;;1.90;99.90;;;;;;5011719;28;20513;-68
2020/12/28 04:35:26;;;;;;;8.13;3.00;;;1.80;99.90;;;;;;5011210;28;20144;-68
2020/12/28 04:37:52;;;;;;;7.20;3.17;;;1.80;99.90;;;;;;5011073;28;20096;-68
2020/12/28 04:40:20;;;;;;;7.13;3.47;;;1.90;99.90;;;;;;5011548;28;20085;-70
2020/12/28 04:42:47;;;;;;;9.73;3.87;;;1.80;99.90;;;;;;5011306;28;20104;-72
2020/12/28 04:45:14;;;;;;;8.00;3.23;;;1.80;99.90;;;;;;5011383;28;20136;-69
2020/12/28 04:47:41;;;;;;;6.37;3.37;;;1.80;99.90;;;;;;5010784;28;20057;-68
2020/12/28 04:50:08;;;;;;;7.83;3.60;;;1.70;99.90;;;;;;5011167;28;20133;-68
2020/12/28 04:52:35;;;;;;;11.83;4.20;;;1.70;99.90;;;;;;5010949;28;20111;-69
2020/12/28 04:55:02;;;;;;;9.23;3.73;;;1.60;99.90;;;;;;5011443;28;20108;-69
2020/12/28 04:57:30;;;;;;;8.00;3.20;;;1.60;99.90;;;;;;5010643;28;20136;-68
2020/12/28 04:59:57;;;;;;;6.67;3.23;;;1.50;99.90;;;;;;5011758;28;20137;-69
2020/12/28 05:02:24;;;;;;;8.07;3.50;;;1.50;99.90;;;;;;5010468;28;20179;-69
2020/12/28 05:04:52;;;;;;;9.00;4.03;;;1.50;99.90;;;;;;5011200;28;20054;-68
2020/12/28 05:07:18;;;;;;;9.97;4.07;;;1.40;99.90;;;;;;5010564;28;20054;-69
2020/12/28 05:09:45;;;;;;;7.50;3.07;;;1.40;99.90;;;;;;5011379;28;20137;-68
2020/12/28 05:12:13;;;;;;;7.33;3.27;;;1.40;99.90;;;;;;5010784;28;20172;-69
2020/12/28 05:14:40;;;;;;;7.43;3.00;;;1.40;99.90;;;;;;5010792;28;20049;-68
2020/12/28 05:17:08;;;;;;;8.93;3.40;;;1.40;99.90;;;;;;5010905;28;20184;-68
2020/12/28 05:19:36;;;;;;;8.13;3.47;;;1.40;99.90;;;;;;5010798;28;20086;-68
2020/12/28 05:22:04;;;;;;;8.40;3.90;;;1.50;99.90;;;;;;5011142;28;20061;-68
2020/12/28 05:24:31;;;;;;;8.70;3.20;;;1.50;99.90;;;;;;5011320;28;20045;-68
2020/12/28 05:26:59;;;;;;;7.87;3.40;;;1.50;99.90;;;;;;5012068;28;20481;-70
2020/12/28 05:29:28;;;;;;;8.63;3.57;;;1.50;99.90;;;;;;5010258;28;20049;-73
2020/12/28 05:31:56;;;;;;;10.97;3.87;;;1.60;99.90;;;;;;5010778;28;20092;-69
2020/12/28 05:34:24;;;;;;;7.13;3.10;;;1.60;99.90;;;;;;5010590;28;20077;-68
2020/12/28 05:36:53;;;;;;;8.20;4.03;;;1.60;99.90;;;;;;5010779;28;20065;-68
2020/12/28 05:39:22;;;;;;;7.90;3.40;;;1.60;99.90;;;;;;5010421;28;20054;-68
2020/12/28 05:41:56;;;;;;;9.57;4.13;;;1.60;99.90;;;;;;5010687;28;20538;-69
2020/12/28 05:44:26;;;;;;;8.87;4.10;;;1.60;99.90;;;;;;5010491;28;20050;-69
2020/12/28 05:47:06;;;;;;;8.17;3.70;;;1.60;99.90;;;;;;5010908;28;20530;-69
2020/12/28 05:49:35;;;;;;;8.93;3.67;;;1.60;99.90;;;;;;5011940;28;20053;-69
2020/12/28 05:52:03;;;;;;;9.63;4.20;;;1.60;99.90;;;;;;5014530;28;20056;-69
2020/12/28 05:54:31;;;;;;;12.30;3.53;;;1.70;99.90;;;;;;5014098;28;20045;-68
2020/12/28 05:56:58;;;;;;;8.47;4.17;;;1.70;99.90;;;;;;5014577;28;20509;-68
2020/12/28 05:59:25;;;;;;;8.17;4.03;;;1.70;99.90;;;;;;5014820;28;20132;-69
2020/12/28 06:01:53;;;;;;;8.97;4.20;;;1.80;99.90;;;;;;5013783;28;20061;-68
2020/12/28 06:04:21;;;;;;;9.40;3.87;;;1.80;99.90;;;;;;5014439;28;20140;-68
2020/12/28 06:06:48;;;;;;;8.97;4.33;;;1.80;99.90;;;;;;5013851;28;20100;-69
2020/12/28 06:09:19;;;;;;;9.97;3.93;;;1.80;99.90;;;;;;5014320;28;20115;-70
2020/12/28 06:11:46;;;;;;;8.20;3.83;;;1.80;99.90;;;;;;5013830;28;20132;-68
2020/12/28 06:14:17;;;;;;;9.80;4.13;;;1.80;99.90;;;;;;5014083;28;20116;-68
2020/12/28 06:16:45;;;;;;;9.33;4.30;;;1.80;99.90;;;;;;5013875;28;20050;-70
2020/12/28 06:19:23;;;;;;;9.27;3.77;;;1.80;99.90;;;;;;5014207;28;20562;-69
2020/12/28 06:21:50;;;;;;;10.57;4.13;;;1.80;99.90;;;;;;5013377;28;20087;-69
2020/12/28 06:24:27;;;;;;;10.50;4.20;;;1.80;99.90;;;;;;5013931;28;20510;-68
2020/12/28 06:27:05;;;;;;;10.20;3.70;;;1.80;99.90;;;;;;5013717;28;20137;-69
2020/12/28 06:29:34;;;;;;;9.20;3.90;;;1.80;99.90;;;;;;5014086;28;20057;-69
2020/12/28 06:32:11;;;;;;;9.20;3.93;;;1.80;99.90;;;;;;5013279;28;20163;-68
2020/12/28 06:34:38;;;;;;;;;;;1.80;99.90;;;;;;5014400;28;20089;-72
2020/12/28 06:37:05;;;;;;;;;;;1.80;99.90;;;;;;5014014;28;19928;-68
2020/12/28 06:39:31;;;;;;;7.80;4.07;;;1.80;99.90;;;;;;5014016;28;20271;-72
2020/12/28 06:42:09;;;;;;;10.70;4.43;;;1.80;99.90;;;;;;5013253;28;20477;-69
2020/12/28 06:44:36;;;;;;;11.70;4.63;;;1.80;99.90;;;;;;5013736;28;20456;-68
2020/12/28 06:47:15;;;;;;;9.77;4.10;;;1.80;99.90;;;;;;5013802;28;20090;-70
2020/12/28 06:49:43;;;;;;;9.87;4.27;;;1.80;99.90;;;;;;5013756;28;20085;-68
2020/12/28 06:52:10;;;;;;;9.33;4.03;;;1.80;99.90;;;;;;5013338;28;20359;-71
2020/12/28 06:54:36;;;;;;;11.27;4.60;;;1.80;99.90;;;;;;5013205;28;20422;-68
2020/12/28 06:57:04;;;;;;;11.57;4.57;;;1.90;99.90;;;;;;5013368;28;20129;-68
2020/12/28 06:59:31;;;;;;;11.03;4.50;;;1.80;99.90;;;;;;5012792;28;20060;-69
2020/12/28 07:01:59;;;;;;;10.53;4.23;;;1.90;99.90;;;;;;5012830;28;20060;-69
2020/12/28 07:04:27;;;;;;;7.37;3.63;;;1.90;99.90;;;;;;5012974;28;20099;-72
2020/12/28 07:06:58;;;;;;;11.07;4.83;;;1.90;99.90;;;;;;5013392;28;20573;-69
2020/12/28 07:09:25;;;;;;;9.40;4.50;;;2.00;99.90;;;;;;5012923;28;20053;-69
2020/12/28 07:11:52;;;;;;;10.20;5.10;;;2.00;99.90;;;;;;5012933;28;20069;-73
2020/12/28 07:14:21;;;;;;;9.57;4.40;;;2.00;99.90;;;;;;5012739;28;20064;-69
2020/12/28 07:16:53;;;;;;;12.23;4.27;;;1.90;99.90;;;;;;5013429;28;20495;-68
2020/12/28 07:19:20;;;;;;;8.37;3.90;;;2.00;99.90;;;;;;5012758;28;20111;-72
2020/12/28 07:21:47;;;;;;;9.73;4.07;;;2.00;99.90;;;;;;5013044;28;20073;-69
2020/12/28 07:24:15;;;;;;;10.93;4.43;;;2.10;99.90;;;;;;5012501;28;20128;-69
2020/12/28 07:26:43;;;;;;;11.60;4.97;;;2.00;99.90;;;;;;5013426;28;20096;-69
2020/12/28 07:29:14;;;;;;;9.27;4.80;;;2.10;99.90;;;;;;5013076;28;20575;-68
2020/12/28 07:31:41;;;;;;;9.63;4.77;;;2.00;99.90;;;;;;5012464;28;20136;-69
2020/12/28 07:34:13;;;;;;;10.47;4.20;;;2.00;99.90;;;;;;5012866;28;20089;-68
2020/12/28 07:36:42;;;;;;;9.27;4.10;;;2.00;99.90;;;;;;5012184;28;20512;-69
2020/12/28 07:39:11;;;;;;;9.60;5.00;;;2.00;99.90;;;;;;5012753;28;20498;-70
2020/12/28 07:41:39;;;;;;;9.33;4.40;;;2.20;99.90;;;;;;5012140;28;20502;-68
2020/12/28 07:44:06;;;;;;;11.30;4.70;;;2.20;99.90;;;;;;5012492;28;20093;-69
2020/12/28 07:46:45;;;;;;;10.77;4.30;;;2.20;99.90;;;;;;5012155;28;20371;-68
2020/12/28 07:49:16;;;;;;;13.80;5.53;;;2.20;99.90;;;;;;5013058;28;20100;-68
2020/12/28 07:51:49;;;;;;;10.87;5.03;;;2.00;99.90;;;;;;5011856;28;20057;-72
2020/12/28 07:54:21;;;;;;;10.73;4.57;;;2.00;99.90;;;;;;5012506;28;20138;-69
2020/12/28 07:56:52;;;;;;;9.97;4.80;;;1.90;99.90;;;;;;5011992;28;20050;-69
2020/12/28 07:59:46;;;;;;;10.93;5.23;;;1.90;99.90;;;;;;5012200;28;20050;-70
2020/12/28 08:02:49;;;;;;;12.37;5.37;;;2.00;99.90;;;;;;5000302;28;20141;-71
2020/12/28 08:05:19;;;;;;;12.37;4.67;;;2.10;99.90;;;;;;5008796;28;20593;-69
2020/12/28 08:07:46;;;;;;;10.00;4.70;;;2.10;99.90;;;;;;5011801;28;20144;-69
2020/12/28 08:10:13;;;;;;;10.10;4.27;;;2.10;99.90;;;;;;5012158;28;20133;-68
2020/12/28 08:12:43;;;;;;;13.33;4.77;;;2.10;99.90;;;;;;5010727;28;20137;-68
2020/12/28 08:15:10;;;;;;;12.60;4.20;;;2.20;99.90;;;;;;5012087;28;20521;-70
2020/12/28 08:17:36;;;;;;;11.10;3.80;;;2.20;99.90;;;;;;5011774;28;20093;-70
2020/12/28 08:20:08;;;;;;;8.77;3.83;;;2.20;99.90;;;;;;5012635;28;20489;-68
2020/12/28 08:22:35;;;;;;;9.60;4.07;;;2.10;99.90;;;;;;5011705;28;20062;-68
2020/12/28 08:25:04;;;;;;;9.30;4.17;;;2.10;99.90;;;;;;5011799;28;20050;-69
2020/12/28 08:27:32;;;;;;;11.83;4.50;;;2.20;99.90;;;;;;5011554;28;20152;-69
2020/12/28 08:30:01;;;;;;;12.33;4.87;;;2.10;99.90;;;;;;5012213;28;20050;-69
2020/12/28 08:32:29;;;;;;;12.10;5.43;;;2.10;99.90;;;;;;5011669;28;20107;-68
2020/12/28 08:34:57;;;;;;;12.70;4.90;;;2.00;99.90;;;;;;5011334;28;20059;-68
2020/12/28 08:37:24;;;;;;;10.93;4.83;;;2.10;99.90;;;;;;5011845;28;20194;-70
2020/12/28 08:39:51;;;;;;;14.10;4.83;;;2.10;99.90;;;;;;5011423;28;20053;-69
2020/12/28 08:42:28;;;;;;;12.13;5.30;;;2.10;99.90;;;;;;5011185;28;20146;-69
2020/12/28 08:44:54;;;;;;;13.32;5.25;;;2.20;99.90;;;;;;5011230;28;20045;-69
2020/12/28 08:47:25;;;;;;;16.00;6.27;;;2.30;99.90;;;;;;5011221;28;20104;-69
2020/12/28 08:49:53;;;;;;;15.90;5.47;;;2.20;99.90;;;;;;5011293;28;20595;-72
2020/12/28 08:52:21;;;;;;;16.97;6.37;;;2.30;99.90;;;;;;5011342;28;20053;-69
2020/12/28 08:54:54;;;;;;;23.17;5.80;;;2.50;99.90;;;;;;5011334;28;20422;-69
2020/12/28 08:57:22;;;;;;;15.77;5.40;;;2.50;99.90;;;;;;5011094;28;20115;-69
2020/12/28 08:59:50;;;;;;;12.63;5.87;;;2.60;99.90;;;;;;5010755;28;20058;-69
2020/12/28 09:02:17;;;;;;;13.57;5.40;;;2.60;99.90;;;;;;5011195;28;20081;-71
2020/12/28 09:04:45;;;;;;;14.67;6.83;;;2.80;99.90;;;;;;5010859;28;20439;-72
2020/12/28 09:07:13;;;;;;;21.23;7.93;;;2.80;99.90;;;;;;5011220;28;20129;-74
2020/12/28 09:09:41;;;;;;;18.50;8.90;;;2.80;99.90;;;;;;5011724;28;20074;-69
2020/12/28 09:12:08;;;;;;;17.97;8.50;;;2.90;99.90;;;;;;5010985;28;20526;-69
2020/12/28 09:14:35;;;;;;;21.87;7.30;;;2.80;99.90;;;;;;5011384;28;20052;-69
2020/12/28 09:17:06;;;;;;;14.63;7.10;;;3.00;99.90;;;;;;5010920;28;20128;-69
2020/12/28 09:19:33;;;;;;;13.03;5.80;;;3.00;99.90;;;;;;5011523;28;20140;-72
2020/12/28 09:22:01;;;;;;;13.00;6.57;;;3.10;99.90;;;;;;5010450;28;20097;-69
2020/12/28 09:24:28;;;;;;;14.20;7.00;;;3.10;99.90;;;;;;5010821;28;20578;-69
2020/12/28 09:26:56;;;;;;;14.33;6.80;;;3.20;99.90;;;;;;5010618;28;20205;-73
2020/12/28 09:29:23;;;;;;;14.10;7.10;;;3.20;99.90;;;;;;5011985;28;20081;-72
2020/12/28 09:31:50;;;;;;;13.13;6.40;;;3.20;99.90;;;;;;5010542;28;20054;-69
2020/12/28 09:34:17;;;;;;;13.43;6.40;;;3.20;99.90;;;;;;5011218;28;20053;-73
2020/12/28 09:36:44;;;;;;;14.10;6.03;;;3.30;99.90;;;;;;5010764;28;20085;-69
2020/12/28 09:39:12;;;;;;;16.30;7.73;;;3.30;99.90;;;;;;5011250;28;20061;-69
2020/12/28 09:41:45;;;;;;;14.93;7.73;;;3.40;99.90;;;;;;5010201;28;20065;-69
2020/12/28 09:44:12;;;;;;;14.47;6.97;;;3.40;99.90;;;;;;5010766;28;20569;-69
2020/12/28 09:46:39;;;;;;;12.70;6.17;;;3.60;99.90;;;;;;5010370;28;20196;-69
2020/12/28 09:49:06;;;;;;;11.40;6.30;;;3.70;99.90;;;;;;5010658;28;20054;-69
2020/12/28 09:51:33;;;;;;;14.13;6.37;;;3.60;99.90;;;;;;5010640;28;20494;-70
2020/12/28 09:54:00;;;;;;;12.33;6.03;;;3.60;99.90;;;;;;5010439;28;20061;-72
2020/12/28 09:56:27;;;;;;;13.57;6.10;;;3.60;99.90;;;;;;5010778;28;20156;-69
2020/12/28 09:58:54;;;;;;;10.60;5.37;;;3.60;99.90;;;;;;5010625;28;20054;-69
2020/12/28 10:01:21;;;;;;;11.70;5.80;;;3.70;99.90;;;;;;5010451;28;20108;-69
2020/12/28 10:03:48;;;;;;;12.50;5.77;;;3.70;99.90;;;;;;5010395;28;20202;-69
2020/12/28 10:06:31;;;;;;;14.87;5.97;;;3.70;99.90;;;;;;5010633;28;20089;-69
2020/12/28 10:08:58;;;;;;;11.63;5.93;;;3.70;99.90;;;;;;5010289;28;20132;-69
2020/12/28 10:11:25;;;;;;;14.40;5.87;;;3.70;99.90;;;;;;5010386;28;20062;-69
2020/12/28 10:13:53;;;;;;;12.20;6.07;;;3.70;99.90;;;;;;5010118;28;20150;-69
2020/12/28 10:16:24;;;;;;;15.47;6.77;;;3.60;99.90;;;;;;5010473;28;20573;-70
2020/12/28 10:18:52;;;;;;;16.80;5.73;;;3.70;99.90;;;;;;5010220;28;20571;-70
2020/12/28 10:21:20;;;;;;;15.50;6.60;;;3.60;99.90;;;;;;5010676;28;20458;-70
2020/12/28 10:23:47;;;;;;;10.40;5.67;;;3.60;99.90;;;;;;5010271;28;20058;-70
2020/12/28 10:26:18;;;;;;;21.47;8.07;;;3.60;99.90;;;;;;5010712;28;20053;-69
2020/12/28 10:28:46;;;;;;;18.00;7.30;;;3.60;99.90;;;;;;5010223;28;20050;-69
2020/12/28 10:31:14;;;;;;;15.10;6.63;;;3.70;99.90;;;;;;5010542;28;20133;-70
2020/12/28 10:33:41;;;;;;;13.90;6.60;;;3.60;99.90;;;;;;5010571;28;20083;-69
2020/12/28 10:36:14;;;;;;;16.67;6.30;;;3.60;99.90;;;;;;5010712;28;20050;-70
2020/12/28 10:38:42;;;;;;;12.33;5.50;;;3.70;99.90;;;;;;5014188;28;20095;-70
2020/12/28 10:41:08;;;;;;;13.90;6.20;;;3.70;99.90;;;;;;5013463;28;20526;-71
2020/12/28 10:43:35;;;;;;;10.60;5.73;;;3.70;99.90;;;;;;5013899;28;20137;-70
2020/12/28 10:46:02;;;;;;;12.13;5.50;;;3.70;99.90;;;;;;5013311;28;20129;-69
2020/12/28 10:48:30;;;;;;;12.70;6.40;;;3.60;99.90;;;;;;5013763;28;20058;-70
2020/12/28 10:50:57;;;;;;;13.83;7.07;;;3.50;99.90;;;;;;5013469;28;20096;-70
2020/12/28 10:53:24;;;;;;;13.03;6.50;;;3.50;99.90;;;;;;5014133;28;20046;-69
2020/12/28 10:55:51;;;;;;;15.23;7.33;;;3.40;99.90;;;;;;5013141;28;20057;-72
2020/12/28 10:58:17;;;;;;;18.17;8.90;;;3.40;99.90;;;;;;5013437;28;20104;-69
2020/12/28 11:00:44;;;;;;;20.37;9.63;;;3.30;99.90;;;;;;5013210;28;20466;-69
2020/12/28 11:03:11;;;;;;;20.87;9.40;;;3.40;99.90;;;;;;5013471;28;20502;-70
2020/12/28 11:05:39;;;;;;;23.87;9.73;;;3.40;99.90;;;;;;5012994;28;20054;-70
2020/12/28 11:08:06;;;;;;;21.00;9.40;;;3.40;99.90;;;;;;5013488;28;20504;-69
2020/12/28 11:10:32;;;;;;;17.30;9.90;;;3.40;99.90;;;;;;5013112;28;20053;-69
2020/12/28 11:12:59;;;;;;;19.77;10.17;;;3.30;99.90;;;;;;5012859;28;20092;-70
2020/12/28 11:15:26;;;;;;;19.70;9.60;;;3.30;99.90;;;;;;5013055;28;20050;-69
2020/12/28 11:17:53;;;;;;;18.77;9.37;;;3.30;99.90;;;;;;5012622;28;20137;-72
2020/12/28 11:20:20;;;;;;;21.50;9.93;;;3.20;99.90;;;;;;5012770;28;20499;-70
2020/12/28 11:22:48;;;;;;;20.50;9.67;;;3.20;99.90;;;;;;5012559;28;20068;-69
2020/12/28 11:25:16;;;;;;;21.43;10.33;;;3.10;99.90;;;;;;5012854;28;20050;-71
2020/12/28 11:27:43;;;;;;;23.43;10.60;;;3.10;99.90;;;;;;5012362;28;20054;-69
2020/12/28 11:30:11;;;;;;;24.73;11.93;;;3.10;99.90;;;;;;5012745;28;20049;-70
2020/12/28 11:32:38;;;;;;;20.67;10.40;;;3.00;99.90;;;;;;5012489;28;20064;-70
2020/12/28 11:35:05;;;;;;;23.37;10.87;;;3.00;99.90;;;;;;5012849;28;20056;-70
2020/12/28 11:37:32;;;;;;;22.20;11.33;;;3.10;99.90;;;;;;5012102;28;20088;-70
2020/12/28 11:40:00;;;;;;;22.07;10.60;;;3.10;99.90;;;;;;5012777;28;20049;-69
2020/12/28 11:42:30;;;;;;;25.40;10.50;;;3.10;99.90;;;;;;5012013;28;20564;-69
2020/12/28 11:44:57;;;;;;;22.10;11.23;;;3.10;99.90;;;;;;5012945;28;20093;-70
2020/12/28 11:47:24;;;;;;;21.27;10.47;;;3.10;99.90;;;;;;5012506;28;20077;-72
2020/12/28 11:49:51;;;;;;;21.33;10.20;;;3.40;99.90;;;;;;5012909;28;20053;-70
2020/12/28 11:52:19;;;;;;;18.03;9.97;;;3.30;99.90;;;;;;5014422;28;20061;-72
2020/12/28 11:54:46;;;;;;;20.33;9.70;;;3.30;99.90;;;;;;5012899;28;20050;-71
2020/12/28 11:57:14;;;;;;;20.50;9.40;;;3.20;99.90;;;;;;5013687;28;20050;-69
2020/12/28 11:59:41;;;;;;;16.87;9.30;;;3.20;99.90;;;;;;5012997;28;20066;-69
2020/12/28 12:02:08;;;;;;;17.97;8.73;;;3.20;99.90;;;;;;5013572;28;20129;-70
2020/12/28 12:04:51;;;;;;;20.13;9.53;;;3.00;99.90;;;;;;5013137;28;20458;-70
2020/12/28 12:07:20;;;;;;;22.00;9.77;;;2.90;99.90;;;;;;5013464;28;20108;-72
2020/12/28 12:09:47;;;;;;;17.20;9.77;;;2.90;99.90;;;;;;5012662;28;20054;-70
2020/12/28 12:12:15;;;;;;;19.97;9.67;;;2.90;99.90;;;;;;5012032;28;20054;-69
2020/12/28 12:14:42;;;;;;;17.10;8.13;;;2.90;99.90;;;;;;5011994;28;20064;-72
2020/12/28 12:17:09;;;;;;;19.47;9.43;;;2.90;99.90;;;;;;5013332;28;20050;-70
2020/12/28 12:19:36;;;;;;;21.13;9.97;;;2.80;99.90;;;;;;5012309;28;20065;-71
2020/12/28 12:22:04;;;;;;;19.37;9.90;;;2.80;99.90;;;;;;5012127;28;20057;-70
2020/12/28 12:24:30;;;;;;;16.27;8.73;;;2.90;99.90;;;;;;5012614;28;20426;-73
2020/12/28 12:26:57;;;;;;;20.27;9.23;;;3.00;99.90;;;;;;5011990;28;20127;-69
2020/12/28 12:29:25;;;;;;;19.17;8.87;;;3.00;99.90;;;;;;5011827;28;20081;-69
2020/12/28 12:31:53;;;;;;;19.70;9.90;;;3.00;99.90;;;;;;5011167;28;20054;-69
2020/12/28 12:34:20;;;;;;;19.00;9.53;;;3.00;99.90;;;;;;5011735;28;20060;-69
2020/12/28 12:36:47;;;;;;;19.53;10.67;;;3.10;99.90;;;;;;5010973;28;20088;-71
2020/12/28 12:39:14;;;;;;;21.93;10.33;;;3.10;99.90;;;;;;5012088;28;20124;-70
2020/12/28 12:41:41;;;;;;;19.77;10.10;;;3.20;99.90;;;;;;5011019;28;20499;-70
2020/12/28 12:44:07;;;;;;;17.73;8.53;;;3.20;99.90;;;;;;5011943;28;20049;-70
2020/12/28 12:46:35;;;;;;;18.33;9.20;;;3.20;99.90;;;;;;5011094;28;20046;-69
2020/12/28 12:49:02;;;;;;;19.20;9.10;;;3.10;99.90;;;;;;5011364;28;20249;-69
2020/12/28 12:51:29;;;;;;;15.60;8.37;;;3.10;99.90;;;;;;5010940;28;20132;-72
2020/12/28 12:53:56;;;;;;;17.63;9.10;;;3.10;99.90;;;;;;5011896;28;20081;-69
2020/12/28 12:56:23;;;;;;;17.47;9.73;;;3.10;99.90;;;;;;5010996;28;20389;-70